Time;durP1;ratioP1;P1;durP2;ratioP2;P2;SDS_P1;SDS_P2;PMS_P1;PMS_P2;Temp;Humidity;BMP_temperature;BMP_pressure;BME280_temperature;BME280_humidity;BME280_pressure;Samples;Min_cycle;Max_cycle;Signal;HPM_P1;HPM_P2
2021/09/02 00:01:43;;;;;;;8.68;4.85;;;14.10;70.90;;;;;;5044181;28;20027;-49
2021/09/02 00:04:27;;;;;;;7.32;5.05;;;14.10;70.90;;;;;;5043411;28;20071;-49
2021/09/02 00:07:12;;;;;;;7.07;4.43;;;14.00;71.00;;;;;;5043394;28;20028;-49
2021/09/02 00:09:56;;;;;;;8.57;5.07;;;14.00;71.00;;;;;;5043369;28;20048;-50
2021/09/02 00:12:40;;;;;;;8.55;4.90;;;14.00;70.90;;;;;;5043444;28;20063;-49
2021/09/02 00:15:24;;;;;;;7.53;5.05;;;13.90;70.80;;;;;;5043439;28;20229;-50
2021/09/02 00:18:09;;;;;;;8.60;4.63;;;13.90;70.90;;;;;;5043871;28;20029;-50
2021/09/02 00:20:53;;;;;;;8.25;4.75;;;13.90;70.80;;;;;;5043561;28;20040;-49
2021/09/02 00:23:37;;;;;;;8.40;4.70;;;13.90;70.80;;;;;;5043595;28;20040;-51
2021/09/02 00:26:21;;;;;;;11.27;4.32;;;13.90;70.60;;;;;;5043263;28;20055;-50
2021/09/02 00:29:06;;;;;;;9.40;4.70;;;13.80;70.70;;;;;;5043323;28;20037;-50
2021/09/02 00:31:50;;;;;;;6.15;4.55;;;13.90;70.70;;;;;;5042361;28;20055;-50
2021/09/02 00:34:35;;;;;;;8.60;4.70;;;13.80;70.50;;;;;;5043250;28;20275;-50
2021/09/02 00:37:19;;;;;;;8.05;4.85;;;13.80;70.40;;;;;;5046127;28;20074;-49
2021/09/02 00:40:04;;;;;;;7.53;4.35;;;13.70;70.50;;;;;;5047131;28;20028;-50
2021/09/02 00:42:48;;;;;;;9.75;4.88;;;13.70;70.60;;;;;;5047136;28;20123;-50
2021/09/02 00:45:32;;;;;;;7.70;4.80;;;13.60;70.50;;;;;;5046967;28;20055;-49
2021/09/02 00:48:17;;;;;;;8.55;4.72;;;13.70;70.50;;;;;;5047017;28;20412;-49
2021/09/02 00:51:01;;;;;;;7.57;4.95;;;13.60;70.70;;;;;;5047364;28;20072;-50
2021/09/02 00:53:50;;;;;;;7.53;5.00;;;13.60;70.70;;;;;;5047081;28;20033;-49
2021/09/02 00:56:34;;;;;;;6.35;4.60;;;13.50;70.60;;;;;;5047321;28;20036;-50
2021/09/02 00:59:18;;;;;;;6.55;4.63;;;13.50;70.60;;;;;;5046854;28;20032;-50
2021/09/02 01:02:02;;;;;;;7.97;4.35;;;13.50;70.70;;;;;;5047047;28;20032;-51
2021/09/02 01:04:47;;;;;;;7.03;4.65;;;13.40;70.80;;;;;;5046908;28;20036;-50
2021/09/02 01:07:31;;;;;;;7.00;4.75;;;13.40;70.90;;;;;;5046877;28;20032;-49
2021/09/02 01:10:16;;;;;;;9.55;4.32;;;13.40;70.80;;;;;;5046773;28;20048;-50
2021/09/02 01:13:00;;;;;;;6.18;4.68;;;13.40;70.80;;;;;;5046642;28;20097;-49
2021/09/02 01:15:44;;;;;;;7.30;4.60;;;13.40;70.90;;;;;;5046542;28;20024;-49
2021/09/02 01:18:28;;;;;;;9.38;4.75;;;13.40;70.80;;;;;;5046402;28;20051;-50
2021/09/02 01:21:13;;;;;;;7.22;4.80;;;13.40;70.80;;;;;;5046769;28;20025;-50
2021/09/02 01:23:57;;;;;;;12.02;5.07;;;13.40;70.70;;;;;;5045436;28;20383;-51
2021/09/02 01:26:42;;;;;;;6.93;5.00;;;13.40;70.70;;;;;;5046442;28;20039;-50
2021/09/02 01:29:27;;;;;;;7.00;4.72;;;13.40;71.10;;;;;;5046300;28;20092;-49
2021/09/02 01:32:11;;;;;;;9.32;4.53;;;13.40;71.10;;;;;;5046485;28;20032;-53
2021/09/02 01:34:56;;;;;;;6.93;4.38;;;13.30;71.10;;;;;;5046657;28;20216;-52
2021/09/02 01:37:42;;;;;;;8.43;4.53;;;13.30;71.00;;;;;;5046404;28;20108;-49
2021/09/02 01:40:37;;;;;;;7.20;4.55;;;13.30;71.00;;;;;;5046261;28;20037;-50
2021/09/02 01:43:21;;;;;;;7.47;5.00;;;13.30;71.20;;;;;;5046221;28;20056;-49
2021/09/02 01:46:05;;;;;;;7.40;4.78;;;13.30;71.00;;;;;;5045869;28;20443;-51
2021/09/02 01:48:53;;;;;;;7.68;4.82;;;13.20;70.90;;;;;;5045858;28;20071;-52
2021/09/02 01:51:38;;;;;;;7.55;5.07;;;13.20;70.90;;;;;;5045770;28;20032;-52
2021/09/02 01:54:22;;;;;;;9.10;5.20;;;13.10;70.90;;;;;;5045684;28;20076;-49
2021/09/02 01:57:07;;;;;;;8.50;5.00;;;13.20;70.60;;;;;;5046189;28;20397;-50
2021/09/02 01:59:51;;;;;;;6.80;4.82;;;13.10;70.60;;;;;;5045829;28;20064;-50
2021/09/02 02:02:35;;;;;;;6.40;4.70;;;13.10;70.70;;;;;;5046409;28;20052;-49
2021/09/02 02:05:20;;;;;;;7.55;4.85;;;13.10;70.60;;;;;;5046169;28;20075;-49
2021/09/02 02:08:04;;;;;;;7.15;4.50;;;13.10;70.70;;;;;;5045599;28;20041;-49
2021/09/02 02:10:49;;;;;;;7.80;5.07;;;12.90;70.90;;;;;;5045779;28;20040;-50
2021/09/02 02:13:33;;;;;;;7.60;4.65;;;13.00;70.90;;;;;;5045446;28;20484;-51
2021/09/02 02:16:17;;;;;;;7.72;5.15;;;12.90;70.90;;;;;;5045548;28;20024;-49
2021/09/02 02:19:01;;;;;;;7.53;5.15;;;12.90;70.90;;;;;;5045301;28;20252;-49
2021/09/02 02:21:46;;;;;;;9.75;5.50;;;12.90;71.00;;;;;;5045235;28;20346;-50
2021/09/02 02:24:30;;;;;;;6.38;4.40;;;12.90;70.90;;;;;;5045101;28;20033;-49
2021/09/02 02:27:14;;;;;;;8.32;5.13;;;12.80;70.90;;;;;;5045598;28;20025;-52
2021/09/02 02:29:58;;;;;;;7.55;4.80;;;12.90;70.80;;;;;;5045291;28;20033;-50
2021/09/02 02:32:43;;;;;;;7.40;4.50;;;12.80;70.70;;;;;;5045034;28;20060;-49
2021/09/02 02:35:27;;;;;;;7.35;5.15;;;12.80;70.70;;;;;;5045448;28;20041;-49
2021/09/02 02:38:11;;;;;;;9.43;4.68;;;12.80;70.80;;;;;;5044989;28;20097;-49
2021/09/02 02:40:56;;;;;;;6.18;4.43;;;12.80;70.60;;;;;;5044863;28;20093;-50
2021/09/02 02:43:40;;;;;;;6.32;4.57;;;12.80;70.70;;;;;;5044837;28;20128;-51
2021/09/02 02:46:24;;;;;;;6.28;4.50;;;12.80;70.70;;;;;;5044720;28;20272;-52
2021/09/02 02:49:09;;;;;;;6.35;4.78;;;12.70;70.80;;;;;;5044889;28;20076;-49
2021/09/02 02:51:53;;;;;;;6.80;4.57;;;12.70;70.80;;;;;;5044662;28;20089;-50
2021/09/02 02:54:37;;;;;;;7.53;4.95;;;12.70;70.70;;;;;;5044859;28;20052;-51
2021/09/02 02:57:22;;;;;;;8.70;4.65;;;12.60;70.80;;;;;;5044511;28;20036;-49
2021/09/02 03:00:07;;;;;;;6.15;4.30;;;12.60;70.80;;;;;;5044403;28;20087;-50
2021/09/02 03:02:51;;;;;;;6.70;4.45;;;12.60;70.50;;;;;;5044631;28;20241;-50
2021/09/02 03:05:35;;;;;;;6.60;4.68;;;12.60;70.60;;;;;;5044911;28;20034;-49
2021/09/02 03:08:20;;;;;;;7.22;4.35;;;12.50;70.70;;;;;;5044745;28;20067;-50
2021/09/02 03:11:05;;;;;;;8.82;4.90;;;12.50;70.50;;;;;;5044685;28;20071;-52
2021/09/02 03:13:49;;;;;;;8.27;4.90;;;12.40;70.50;;;;;;5044559;28;20028;-51
2021/09/02 03:16:33;;;;;;;8.43;4.85;;;12.40;70.60;;;;;;5044398;28;20087;-50
2021/09/02 03:19:17;;;;;;;5.75;4.70;;;12.40;70.60;;;;;;5044336;28;20029;-49
2021/09/02 03:22:02;;;;;;;9.63;5.00;;;12.40;70.60;;;;;;5044167;28;20044;-50
2021/09/02 03:24:46;;;;;;;7.38;5.00;;;12.40;70.60;;;;;;5044061;28;20033;-51
2021/09/02 03:27:31;;;;;;;7.25;4.53;;;12.40;70.80;;;;;;5044693;28;20028;-52
2021/09/02 03:30:15;;;;;;;8.95;5.10;;;12.40;70.80;;;;;;5044339;28;20043;-49
2021/09/02 03:33:00;;;;;;;7.95;4.43;;;12.40;70.70;;;;;;5044281;28;20123;-52
2021/09/02 03:35:44;;;;;;;9.23;4.88;;;12.40;70.50;;;;;;5044019;28;20371;-52
2021/09/02 03:38:28;;;;;;;7.25;4.55;;;12.30;70.50;;;;;;5044386;28;20288;-49
2021/09/02 03:41:12;;;;;;;9.27;4.90;;;12.40;70.50;;;;;;5044275;28;20205;-50
2021/09/02 03:43:56;;;;;;;6.80;4.80;;;12.30;70.50;;;;;;5044165;28;20048;-49
2021/09/02 03:46:41;;;;;;;5.85;4.45;;;12.30;70.50;;;;;;5044006;28;20052;-50
2021/09/02 03:49:25;;;;;;;7.20;4.85;;;12.30;70.60;;;;;;5043970;28;20036;-49
2021/09/02 03:52:09;;;;;;;7.40;5.00;;;12.30;70.70;;;;;;5043897;28;20059;-50
2021/09/02 03:54:54;;;;;;;7.70;4.60;;;12.30;70.80;;;;;;5042892;28;20040;-49
2021/09/02 03:57:39;;;;;;;8.77;4.65;;;12.30;70.80;;;;;;5043587;28;20037;-50
2021/09/02 04:00:23;;;;;;;8.70;4.85;;;12.30;70.80;;;;;;5043505;28;20105;-50
2021/09/02 04:03:07;;;;;;;9.50;4.65;;;12.30;70.80;;;;;;5044029;28;20025;-50
2021/09/02 04:05:51;;;;;;;9.23;4.93;;;12.20;70.70;;;;;;5043575;28;20075;-49
2021/09/02 04:08:35;;;;;;;7.00;5.10;;;12.20;70.70;;;;;;5044026;28;20428;-49
2021/09/02 04:11:20;;;;;;;8.45;4.68;;;12.20;70.70;;;;;;5045096;28;20048;-49
2021/09/02 04:14:04;;;;;;;6.20;4.78;;;12.20;70.80;;;;;;5047036;28;20033;-49
2021/09/02 04:16:48;;;;;;;7.35;4.72;;;12.20;70.80;;;;;;5048037;28;20067;-49
2021/09/02 04:19:33;;;;;;;7.57;4.47;;;12.20;70.70;;;;;;5047539;28;20079;-51
2021/09/02 04:22:17;;;;;;;7.80;4.75;;;12.20;70.80;;;;;;5047461;28;20401;-51
2021/09/02 04:25:01;;;;;;;7.82;4.88;;;12.20;71.00;;;;;;5047266;28;20079;-51
2021/09/02 04:27:45;;;;;;;8.05;4.90;;;12.10;71.00;;;;;;5047399;28;20090;-49
2021/09/02 04:30:30;;;;;;;6.85;4.82;;;12.10;71.10;;;;;;5047337;28;20054;-50
2021/09/02 04:33:14;;;;;;;7.18;4.60;;;12.10;71.00;;;;;;5047559;28;20052;-51
2021/09/02 04:35:58;;;;;;;9.23;4.63;;;12.20;70.90;;;;;;5047298;28;20040;-51
2021/09/02 04:38:43;;;;;;;8.45;4.70;;;12.20;70.90;;;;;;5047309;28;20240;-50
2021/09/02 04:41:27;;;;;;;7.95;4.88;;;12.30;70.60;;;;;;5047096;28;20037;-50
2021/09/02 04:44:11;;;;;;;8.60;5.05;;;12.20;70.90;;;;;;5047052;28;20036;-50
2021/09/02 04:46:56;;;;;;;7.22;5.03;;;12.20;71.30;;;;;;5046987;28;20044;-49
2021/09/02 04:49:40;;;;;;;9.70;5.20;;;12.20;71.30;;;;;;5047149;28;20032;-49
2021/09/02 04:52:24;;;;;;;8.73;4.90;;;12.20;71.20;;;;;;5046840;28;20067;-49
2021/09/02 04:55:10;;;;;;;8.40;4.82;;;12.10;71.20;;;;;;5046854;28;20217;-50
2021/09/02 04:57:54;;;;;;;7.55;5.20;;;12.10;71.30;;;;;;5046814;28;20213;-51
2021/09/02 05:00:39;;;;;;;8.18;5.22;;;12.20;71.30;;;;;;5047052;28;20244;-50
2021/09/02 05:03:23;;;;;;;7.35;4.85;;;12.10;71.50;;;;;;5046623;28;20024;-51
2021/09/02 05:06:08;;;;;;;9.07;5.40;;;12.10;71.60;;;;;;5047047;28;20033;-49
2021/09/02 05:08:52;;;;;;;11.93;6.20;;;12.10;71.60;;;;;;5046797;28;20064;-50
2021/09/02 05:11:36;;;;;;;7.95;5.00;;;12.10;71.70;;;;;;5046121;28;20232;-52
2021/09/02 05:14:20;;;;;;;8.35;5.28;;;12.20;71.70;;;;;;5046796;28;20036;-51
2021/09/02 05:17:04;;;;;;;6.53;4.60;;;12.10;71.90;;;;;;5046803;28;20087;-52
2021/09/02 05:19:49;;;;;;;7.00;4.97;;;12.20;72.00;;;;;;5046733;28;20205;-49
2021/09/02 05:22:33;;;;;;;7.72;5.03;;;12.20;72.20;;;;;;5046209;28;20033;-50
2021/09/02 05:25:17;;;;;;;6.50;4.70;;;12.20;72.30;;;;;;5045449;28;20363;-50
2021/09/02 05:28:01;;;;;;;7.30;4.82;;;12.30;72.50;;;;;;5046425;28;20083;-49
2021/09/02 05:30:45;;;;;;;8.25;5.00;;;12.30;72.60;;;;;;5046287;28;20028;-53
2021/09/02 05:33:30;;;;;;;9.43;5.07;;;12.30;72.80;;;;;;5046116;28;20431;-51
2021/09/02 05:36:14;;;;;;;9.88;5.28;;;12.40;72.40;;;;;;5045717;28;20068;-49
2021/09/02 05:38:58;;;;;;;9.05;5.75;;;12.40;72.40;;;;;;5046127;28;20224;-49
2021/09/02 05:41:42;;;;;;;8.75;5.50;;;12.40;72.60;;;;;;5046042;28;20040;-50
2021/09/02 05:44:27;;;;;;;9.00;5.88;;;12.50;72.70;;;;;;5045535;28;20041;-49
2021/09/02 05:47:11;;;;;;;9.93;5.45;;;12.50;72.70;;;;;;5046373;28;20033;-49
2021/09/02 05:49:55;;;;;;;10.15;6.07;;;12.60;72.80;;;;;;5046238;28;20045;-52
2021/09/02 05:52:39;;;;;;;8.52;6.13;;;12.60;73.10;;;;;;5046025;28;20036;-50
2021/09/02 05:55:24;;;;;;;8.88;6.07;;;12.70;73.10;;;;;;5045941;28;20076;-53
2021/09/02 05:58:08;;;;;;;11.18;6.00;;;12.80;73.20;;;;;;5046009;28;20056;-52
2021/09/02 06:00:53;;;;;;;9.38;6.38;;;12.80;73.40;;;;;;5045146;28;20253;-50
2021/09/02 06:03:37;;;;;;;12.32;6.57;;;12.90;73.40;;;;;;5045627;28;20047;-50
2021/09/02 06:06:21;;;;;;;13.48;6.97;;;12.90;73.80;;;;;;5045436;28;20228;-49
2021/09/02 06:09:07;;;;;;;9.80;6.20;;;12.90;74.20;;;;;;5045934;28;20115;-49
2021/09/02 06:11:51;;;;;;;9.70;6.88;;;13.00;74.20;;;;;;5045555;28;20032;-50
2021/09/02 06:14:36;;;;;;;12.60;6.55;;;13.10;74.10;;;;;;5046059;28;20045;-49
2021/09/02 06:17:20;;;;;;;19.48;10.43;;;13.20;74.40;;;;;;5045663;28;20248;-49
2021/09/02 06:20:05;;;;;;;10.93;6.78;;;13.30;74.50;;;;;;5045667;28;20067;-50
2021/09/02 06:22:50;;;;;;;11.20;6.78;;;13.40;74.70;;;;;;5045471;28;20035;-50
2021/09/02 06:25:34;;;;;;;10.77;6.97;;;13.50;74.90;;;;;;5045051;28;20213;-49
2021/09/02 06:28:18;;;;;;;9.68;6.63;;;13.50;75.00;;;;;;5045309;28;20033;-50
2021/09/02 06:31:02;;;;;;;10.85;7.35;;;13.60;75.30;;;;;;5045037;28;20049;-49
2021/09/02 06:33:47;;;;;;;15.02;7.40;;;13.80;75.20;;;;;;5043962;28;20287;-53
2021/09/02 06:36:31;;;;;;;11.55;6.80;;;13.80;75.60;;;;;;5044895;28;20052;-52
2021/09/02 06:39:15;;;;;;;13.02;7.28;;;13.90;75.70;;;;;;5045620;28;20072;-51
2021/09/02 06:41:59;;;;;;;9.55;6.60;;;14.00;75.90;;;;;;5044985;28;20120;-49
2021/09/02 06:44:43;;;;;;;9.82;6.53;;;14.00;76.10;;;;;;5044904;28;20060;-49
2021/09/02 06:47:28;;;;;;;11.70;6.82;;;14.10;75.70;;;;;;5045193;28;20072;-51
2021/09/02 06:50:12;;;;;;;11.98;7.00;;;14.30;75.60;;;;;;5044638;28;20261;-49
2021/09/02 06:52:56;;;;;;;9.38;6.75;;;14.40;76.00;;;;;;5044588;28;20032;-50
2021/09/02 06:55:41;;;;;;;9.23;6.60;;;14.50;76.00;;;;;;5044706;28;20036;-50
2021/09/02 06:58:25;;;;;;;9.98;6.47;;;14.60;76.10;;;;;;5044445;28;20031;-50
2021/09/02 07:01:11;;;;;;;10.32;6.70;;;14.70;75.90;;;;;;5044443;28;20031;-49
2021/09/02 07:03:55;;;;;;;11.15;6.20;;;14.80;75.40;;;;;;5044562;28;20088;-49
2021/09/02 07:06:39;;;;;;;10.55;6.30;;;15.10;75.40;;;;;;5044319;28;20033;-49
2021/09/02 07:09:24;;;;;;;8.25;6.20;;;15.60;74.40;;;;;;5044256;28;20212;-50
2021/09/02 07:12:08;;;;;;;8.77;5.47;;;16.20;73.00;;;;;;5044712;28;20025;-50
2021/09/02 07:14:52;;;;;;;12.30;6.03;;;16.80;71.70;;;;;;5044456;28;20365;-53
2021/09/02 07:17:36;;;;;;;11.43;5.90;;;17.30;70.50;;;;;;5043782;28;20036;-51
2021/09/02 07:20:20;;;;;;;8.27;5.32;;;17.80;69.00;;;;;;5044692;28;20089;-51
2021/09/02 07:23:05;;;;;;;8.35;5.55;;;18.40;67.60;;;;;;5044430;28;20089;-51
2021/09/02 07:25:49;;;;;;;7.15;4.70;;;19.60;64.10;;;;;;5044337;28;20032;-52
2021/09/02 07:28:33;;;;;;;8.15;4.90;;;21.20;59.10;;;;;;5044227;28;20035;-52
2021/09/02 07:31:18;;;;;;;8.30;4.75;;;22.10;55.40;;;;;;5044270;28;20056;-50
2021/09/02 07:34:02;;;;;;;7.25;4.93;;;22.80;53.20;;;;;;5043964;28;20053;-50
2021/09/02 07:36:46;;;;;;;8.68;4.53;;;23.40;51.40;;;;;;5044208;28;20025;-50
2021/09/02 07:39:31;;;;;;;7.18;4.63;;;23.60;49.80;;;;;;5043859;28;20035;-50
2021/09/02 07:42:15;;;;;;;8.32;4.68;;;22.70;52.20;;;;;;5044281;28;20360;-52
2021/09/02 07:45:00;;;;;;;5.55;4.28;;;22.00;54.50;;;;;;5043606;28;20060;-50
2021/09/02 07:47:44;;;;;;;6.85;4.57;;;22.00;55.20;;;;;;5043880;28;20044;-50
2021/09/02 07:50:29;;;;;;;7.47;5.18;;;23.20;51.60;;;;;;5044200;28;20032;-53
2021/09/02 07:53:13;;;;;;;8.10;4.65;;;22.80;51.90;;;;;;5044175;28;20040;-48
2021/09/02 07:55:58;;;;;;;7.35;4.70;;;22.20;53.40;;;;;;5043888;28;20396;-48
2021/09/02 07:58:42;;;;;;;6.22;3.95;;;21.60;54.30;;;;;;5043889;28;20070;-51
2021/09/02 08:01:26;;;;;;;8.43;4.30;;;21.40;55.30;;;;;;5043813;28;20036;-49
2021/09/02 08:04:12;;;;;;;6.10;4.15;;;21.20;56.20;;;;;;5043766;28;20032;-51
2021/09/02 08:06:56;;;;;;;7.30;4.15;;;20.90;56.70;;;;;;5043546;28;20094;-49
2021/09/02 08:09:40;;;;;;;6.50;4.35;;;20.70;56.30;;;;;;5043565;28;20032;-50
2021/09/02 08:12:24;;;;;;;6.32;4.32;;;20.50;56.60;;;;;;5043400;28;20056;-50
2021/09/02 08:15:09;;;;;;;8.40;4.15;;;20.30;56.50;;;;;;5043864;28;20249;-48
2021/09/02 08:17:53;;;;;;;7.10;4.47;;;20.30;57.70;;;;;;5043542;28;20056;-48
2021/09/02 08:20:37;;;;;;;8.18;4.40;;;20.20;57.00;;;;;;5044188;28;20044;-49
2021/09/02 08:23:22;;;;;;;5.70;4.03;;;20.20;57.00;;;;;;5043652;28;20429;-48
2021/09/02 08:26:06;;;;;;;5.70;4.00;;;20.30;57.30;;;;;;5043735;28;20082;-49
2021/09/02 08:28:51;;;;;;;7.70;4.20;;;20.40;57.80;;;;;;5043565;28;20071;-49
2021/09/02 08:31:35;;;;;;;5.65;3.80;;;20.30;57.30;;;;;;5043556;28;20036;-51
2021/09/02 08:34:20;;;;;;;6.82;4.13;;;20.30;57.30;;;;;;5043140;28;20083;-48
2021/09/02 08:37:04;;;;;;;5.68;4.00;;;20.40;56.20;;;;;;5043182;28;20076;-48
2021/09/02 08:39:48;;;;;;;8.00;4.03;;;20.40;56.10;;;;;;5042998;28;20086;-47
2021/09/02 08:42:32;;;;;;;6.75;4.00;;;20.50;55.30;;;;;;5042269;28;20213;-51
2021/09/02 08:45:17;;;;;;;6.03;4.03;;;20.50;55.80;;;;;;5042993;28;20368;-52
2021/09/02 08:48:01;;;;;;;6.00;3.85;;;20.60;57.00;;;;;;5042682;28;20029;-52
2021/09/02 08:50:45;;;;;;;10.75;3.60;;;20.80;55.70;;;;;;5043282;28;20056;-52
2021/09/02 08:53:30;;;;;;;6.20;3.72;;;20.70;54.50;;;;;;5043093;28;20037;-51
2021/09/02 08:56:14;;;;;;;7.38;4.28;;;20.70;53.90;;;;;;5043179;28;20041;-51
2021/09/02 08:58:58;;;;;;;7.00;4.20;;;20.70;55.10;;;;;;5046714;28;20044;-52
2021/09/02 09:01:50;;;;;;;6.03;3.95;;;20.80;53.70;;;;;;5046814;28;20228;-51
2021/09/02 09:04:34;;;;;;;6.28;3.72;;;20.70;53.50;;;;;;5046613;28;20080;-53
2021/09/02 09:07:28;;;;;;;7.57;4.30;;;20.80;56.40;;;;;;5046933;28;20044;-52
2021/09/02 09:10:17;;;;;;;6.60;3.90;;;21.00;53.90;;;;;;5045957;28;20040;-51
2021/09/02 09:13:03;;;;;;;6.88;3.90;;;20.90;53.60;;;;;;5046629;28;20072;-50
2021/09/02 09:15:47;;;;;;;7.55;4.45;;;21.10;53.80;;;;;;5046802;28;20032;-48
2021/09/02 09:18:31;;;;;;;6.55;4.60;;;21.30;54.30;;;;;;5046478;28;20028;-51
2021/09/02 09:21:17;;;;;;;9.77;4.20;;;21.30;54.30;;;;;;5046810;28;20303;-53
2021/09/02 09:24:02;;;;;;;5.95;4.07;;;21.30;54.20;;;;;;5046430;28;20075;-48
2021/09/02 09:26:46;;;;;;;6.53;4.13;;;21.50;55.40;;;;;;5045480;28;20079;-48
2021/09/02 09:29:30;;;;;;;6.72;4.30;;;21.50;53.60;;;;;;5046743;28;20040;-52
2021/09/02 09:32:18;;;;;;;9.40;4.40;;;21.40;52.60;;;;;;5045974;28;20024;-52
2021/09/02 09:35:02;;;;;;;7.53;4.03;;;21.30;51.30;;;;;;5046057;28;20143;-51
2021/09/02 09:37:48;;;;;;;7.65;4.40;;;21.60;51.80;;;;;;5045978;28;20048;-53
2021/09/02 09:40:32;;;;;;;6.70;4.22;;;21.60;52.80;;;;;;5044978;28;20263;-52
2021/09/02 09:43:20;;;;;;;5.57;3.60;;;21.70;52.10;;;;;;5044957;28;20228;-49
2021/09/02 09:46:04;;;;;;;5.50;3.92;;;21.80;52.40;;;;;;5045829;28;20045;-48
2021/09/02 09:48:48;;;;;;;5.22;3.90;;;21.80;51.20;;;;;;5030932;28;20391;-52
2021/09/02 09:51:32;;;;;;;5.68;3.70;;;21.80;51.20;;;;;;5045720;28;20116;-50
2021/09/02 09:54:24;;;;;;;6.03;4.13;;;22.10;53.20;;;;;;5044693;28;20056;-52
2021/09/02 09:57:10;;;;;;;7.85;4.05;;;22.20;52.00;;;;;;5046720;28;20029;-51
2021/09/02 09:59:54;;;;;;;7.50;3.95;;;22.30;52.00;;;;;;5017023;28;20036;-52
2021/09/02 10:02:39;;;;;;;6.57;3.95;;;22.30;51.30;;;;;;5030803;28;20029;-53
2021/09/02 10:05:24;;;;;;;5.20;3.60;;;22.30;50.80;;;;;;5046144;28;20048;-50
2021/09/02 10:08:08;;;;;;;6.30;3.72;;;22.40;49.40;;;;;;5045852;28;20059;-52
2021/09/02 10:10:52;;;;;;;6.45;3.13;;;22.40;48.70;;;;;;5045943;28;20035;-53
2021/09/02 10:13:37;;;;;;;6.57;4.25;;;22.40;49.80;;;;;;5044573;28;20048;-51
2021/09/02 10:16:21;;;;;;;6.25;3.70;;;22.40;49.30;;;;;;5044313;28;20048;-49
2021/09/02 10:19:05;;;;;;;5.80;3.60;;;22.40;48.70;;;;;;5045628;28;20072;-51
2021/09/02 10:21:50;;;;;;;6.63;4.05;;;22.60;48.80;;;;;;5030432;28;20026;-48
2021/09/02 10:24:39;;;;;;;5.95;3.70;;;22.70;49.60;;;;;;5044139;28;20088;-52
2021/09/02 10:27:23;;;;;;;5.70;3.55;;;22.70;48.90;;;;;;5044041;28;20048;-52
2021/09/02 10:30:21;;;;;;;5.22;3.50;;;22.80;48.10;;;;;;5045524;28;20084;-49
2021/09/02 10:33:41;;;;;;;6.03;3.90;;;22.80;49.20;;;;;;5044954;28;20067;-49
2021/09/02 10:36:28;;;;;;;7.35;3.83;;;22.80;48.10;;;;;;5044965;28;20043;-53
2021/09/02 10:39:12;;;;;;;6.05;3.60;;;22.90;49.90;;;;;;5045276;28;20062;-50
2021/09/02 10:41:57;;;;;;;6.10;3.88;;;22.90;48.00;;;;;;5030009;28;20040;-52
2021/09/02 10:44:48;;;;;;;5.22;3.47;;;23.10;49.00;;;;;;5044944;28;20040;-51
2021/09/02 10:47:32;;;;;;;5.32;3.40;;;23.10;45.30;;;;;;5045265;28;20032;-52
2021/09/02 10:50:18;;;;;;;5.68;3.70;;;23.10;45.70;;;;;;5030149;28;20024;-51
2021/09/02 10:53:13;;;;;;;8.40;3.85;;;23.00;45.10;;;;;;5044412;28;20076;-52
2021/09/02 10:56:00;;;;;;;7.10;3.13;;;23.00;44.30;;;;;;5044457;28;20064;-49
2021/09/02 10:58:45;;;;;;;5.72;3.15;;;23.00;46.30;;;;;;5044941;28;20360;-49
2021/09/02 11:01:31;;;;;;;7.70;3.55;;;23.00;45.40;;;;;;5044467;28;20101;-52
2021/09/02 11:04:15;;;;;;;5.07;3.13;;;23.00;46.80;;;;;;5044322;28;20132;-52
2021/09/02 11:06:59;;;;;;;5.18;2.95;;;23.30;45.20;;;;;;5043742;28;20048;-52
2021/09/02 11:09:44;;;;;;;5.32;3.28;;;23.30;44.40;;;;;;5044329;28;20036;-52
2021/09/02 11:12:28;;;;;;;6.93;3.60;;;23.30;46.10;;;;;;5044530;28;20355;-49
2021/09/02 11:15:22;;;;;;;5.50;3.53;;;23.50;47.60;;;;;;5044770;28;20016;-52
2021/09/02 11:18:07;;;;;;;6.72;3.15;;;23.40;44.00;;;;;;5044408;28;20351;-50
2021/09/02 11:20:51;;;;;;;6.22;3.15;;;23.30;44.00;;;;;;5044151;28;20067;-48
2021/09/02 11:23:35;;;;;;;5.95;3.60;;;23.50;45.20;;;;;;5044841;28;20048;-52
2021/09/02 11:26:43;;;;;;;4.70;3.60;;;23.60;45.30;;;;;;5044008;28;20064;-52
2021/09/02 11:29:27;;;;;;;5.03;3.22;;;23.50;43.90;;;;;;5043112;28;20056;-52
2021/09/02 11:32:11;;;;;;;6.53;3.70;;;23.50;44.80;;;;;;5044116;28;20068;-52
2021/09/02 11:35:00;;;;;;;4.82;3.17;;;23.40;44.30;;;;;;5044240;28;20040;-52
2021/09/02 11:37:47;;;;;;;4.90;3.38;;;23.40;43.60;;;;;;5043925;28;20269;-49
2021/09/02 11:40:33;;;;;;;5.88;4.00;;;23.40;44.40;;;;;;5044098;28;20074;-51
2021/09/02 11:43:17;;;;;;;4.38;3.20;;;23.50;47.10;;;;;;5043739;28;20132;-51
2021/09/02 11:46:05;;;;;;;5.10;3.25;;;23.50;44.20;;;;;;5043905;28;20216;-52
2021/09/02 11:48:53;;;;;;;5.65;3.10;;;23.50;45.80;;;;;;5043817;28;20031;-50
2021/09/02 11:51:37;;;;;;;4.03;3.00;;;23.60;44.90;;;;;;5043897;28;20037;-53
2021/09/02 11:54:22;;;;;;;6.07;3.53;;;23.70;44.00;;;;;;5043812;28;20386;-51
2021/09/02 11:57:06;;;;;;;4.85;3.22;;;23.70;44.60;;;;;;5044113;28;20076;-49
2021/09/02 11:59:50;;;;;;;4.38;3.00;;;23.70;44.30;;;;;;5043784;28;20032;-51
2021/09/02 12:02:34;;;;;;;4.80;3.33;;;23.80;43.70;;;;;;5044007;28;20040;-49
2021/09/02 12:05:26;;;;;;;6.40;3.42;;;23.70;43.70;;;;;;5043884;28;20082;-52
2021/09/02 12:08:10;;;;;;;5.28;3.05;;;23.80;45.50;;;;;;5044020;28;20040;-49
2021/09/02 12:10:54;;;;;;;7.32;3.97;;;24.00;44.80;;;;;;5044123;28;20205;-48
2021/09/02 12:13:39;;;;;;;6.88;3.63;;;23.90;44.40;;;;;;5043140;28;20028;-51
2021/09/02 12:16:33;;;;;;;6.68;3.60;;;23.80;44.50;;;;;;5044084;28;20071;-50
2021/09/02 12:19:17;;;;;;;6.35;3.38;;;23.90;44.90;;;;;;5043869;28;20052;-52
2021/09/02 12:22:13;;;;;;;5.50;3.60;;;23.90;45.20;;;;;;5044114;28;20260;-50
2021/09/02 12:25:11;;;;;;;7.63;3.50;;;24.00;44.10;;;;;;5043525;28;20048;-52
2021/09/02 12:27:55;;;;;;;4.90;3.53;;;24.00;44.60;;;;;;5043763;28;20029;-49
2021/09/02 12:30:43;;;;;;;5.80;3.53;;;23.90;43.80;;;;;;5043694;28;20033;-50
2021/09/02 12:33:27;;;;;;;4.78;3.17;;;23.80;44.60;;;;;;5046269;28;20099;-49
2021/09/02 12:36:17;;;;;;;7.50;3.70;;;24.10;47.90;;;;;;5047894;28;20144;-53
2021/09/02 12:39:25;;;;;;;5.90;3.13;;;24.00;46.80;;;;;;5046175;28;20056;-52
2021/09/02 12:42:09;;;;;;;4.35;3.35;;;24.10;47.10;;;;;;5048587;28;20101;-49
2021/09/02 12:45:07;;;;;;;5.78;3.70;;;24.20;46.50;;;;;;5048096;28;20144;-49
2021/09/02 12:48:01;;;;;;;5.18;3.70;;;24.10;45.20;;;;;;5046994;28;20037;-51
2021/09/02 12:50:47;;;;;;;5.82;3.72;;;24.00;45.60;;;;;;5047075;28;20037;-52
2021/09/02 12:53:31;;;;;;;6.78;3.70;;;24.00;45.40;;;;;;5047914;28;20343;-49
2021/09/02 12:56:18;;;;;;;5.50;3.53;;;24.10;45.80;;;;;;5047550;28;20028;-49
2021/09/02 12:59:04;;;;;;;5.63;3.35;;;24.10;46.10;;;;;;5047340;28;20351;-50
2021/09/02 13:01:47;;;;;;;7.93;3.70;;;24.10;46.10;;;;;;5046623;28;20032;-52
2021/09/02 13:04:31;;;;;;;5.82;3.47;;;24.20;45.40;;;;;;5046998;28;20036;-51
2021/09/02 13:07:17;;;;;;;5.80;3.67;;;24.20;45.10;;;;;;5047090;28;20395;-49
2021/09/02 13:10:01;;;;;;;6.68;3.65;;;24.10;45.40;;;;;;5046929;28;20221;-52
2021/09/02 13:12:45;;;;;;;4.88;3.10;;;24.00;44.40;;;;;;5045857;28;20033;-49
2021/09/02 13:15:30;;;;;;;4.60;3.22;;;23.90;43.80;;;;;;5046873;28;20024;-50
2021/09/02 13:18:14;;;;;;;6.28;3.03;;;23.80;44.40;;;;;;5047223;28;20020;-50
2021/09/02 13:20:58;;;;;;;3.85;2.83;;;23.90;44.40;;;;;;5046839;28;20036;-50
2021/09/02 13:23:42;;;;;;;4.60;3.30;;;23.90;44.30;;;;;;5046686;28;20044;-51
2021/09/02 13:26:27;;;;;;;5.75;3.03;;;23.80;44.50;;;;;;5047074;28;20068;-52
2021/09/02 13:29:11;;;;;;;5.47;3.38;;;23.80;45.60;;;;;;5046505;28;20049;-52
2021/09/02 13:31:55;;;;;;;5.63;3.22;;;23.80;45.10;;;;;;5046881;28;20201;-53
2021/09/02 13:34:40;;;;;;;6.45;3.13;;;23.80;44.80;;;;;;5017599;28;20271;-53
2021/09/02 13:37:24;;;;;;;7.70;3.47;;;23.80;44.60;;;;;;5046328;28;20336;-52
2021/09/02 13:40:13;;;;;;;6.38;3.08;;;23.80;44.90;;;;;;5045864;28;20040;-51
2021/09/02 13:42:57;;;;;;;6.80;3.42;;;23.80;45.50;;;;;;5046181;28;20348;-48
2021/09/02 13:45:41;;;;;;;5.95;3.38;;;23.80;46.00;;;;;;5046178;28;20036;-52
2021/09/02 13:48:26;;;;;;;6.45;3.72;;;23.80;45.30;;;;;;5045175;28;20036;-49
2021/09/02 13:51:11;;;;;;;6.38;4.07;;;23.70;45.00;;;;;;5045724;28;20025;-50
2021/09/02 13:53:55;;;;;;;5.55;3.88;;;23.70;45.90;;;;;;5046224;28;20072;-52
2021/09/02 13:56:40;;;;;;;5.68;3.90;;;23.70;46.80;;;;;;5046086;28;20032;-49
2021/09/02 13:59:24;;;;;;;6.18;4.35;;;23.80;46.10;;;;;;5045976;28;20036;-51
2021/09/02 14:02:08;;;;;;;6.93;3.95;;;23.80;47.30;;;;;;5045882;28;20036;-50
2021/09/02 14:04:53;;;;;;;6.38;3.60;;;23.80;46.80;;;;;;5045316;28;20347;-48
2021/09/02 14:07:37;;;;;;;5.93;3.88;;;23.80;47.00;;;;;;5045671;28;20028;-51
2021/09/02 14:10:21;;;;;;;6.45;3.70;;;23.80;47.40;;;;;;5045692;28;20132;-49
2021/09/02 14:13:05;;;;;;;6.47;3.60;;;23.80;47.50;;;;;;5045685;28;20044;-49
2021/09/02 14:15:50;;;;;;;5.50;4.03;;;23.80;48.30;;;;;;5045461;28;20041;-50
2021/09/02 14:18:34;;;;;;;5.97;4.28;;;23.90;47.40;;;;;;5045463;28;20335;-51